createdAt,value
2019-02-04T00:00:42.878Z,10.30
2019-02-04T00:03:18.394Z,7.95
2019-02-04T00:05:48.737Z,8.15
2019-02-04T00:08:19.294Z,8.83
2019-02-04T00:10:49.636Z,7.20
2019-02-04T00:13:20.006Z,7.92
2019-02-04T00:15:50.661Z,8.58
2019-02-04T00:18:21.060Z,10.48
2019-02-04T00:20:51.376Z,5.05
2019-02-04T00:23:22.282Z,8.58
2019-02-04T00:25:52.661Z,11.22
2019-02-04T00:28:23.324Z,13.22
2019-02-04T00:30:53.910Z,8.73
2019-02-04T00:33:24.645Z,9.15
2019-02-04T00:35:55.277Z,10.93
2019-02-04T00:38:26.395Z,10.25
2019-02-04T00:40:56.770Z,7.90
2019-02-04T00:43:27.345Z,8.50
2019-02-04T00:45:58.109Z,10.55
2019-02-04T00:48:28.427Z,8.05
2019-02-04T00:50:59.163Z,8.70
2019-02-04T00:53:29.878Z,11.63
2019-02-04T00:56:00.570Z,7.15
2019-02-04T00:58:31.310Z,10.25
2019-02-04T01:01:01.966Z,10.15
2019-02-04T01:03:32.693Z,8.45
2019-02-04T01:06:22.829Z,12.13
2019-02-04T01:08:54.696Z,7.80
2019-02-04T01:11:25.139Z,10.43
2019-02-04T01:13:55.458Z,7.97
2019-02-04T01:16:26.124Z,9.48
2019-02-04T01:18:56.487Z,9.55
2019-02-04T01:21:26.833Z,9.30
2019-02-04T01:23:57.178Z,8.88
2019-02-04T01:26:27.907Z,10.40
2019-02-04T01:28:58.254Z,8.93
2019-02-04T01:31:28.602Z,9.48
2019-02-04T01:33:59.378Z,11.05
2019-02-04T01:36:29.730Z,11.50
2019-02-04T01:39:00.878Z,14.50
2019-02-04T01:41:33.293Z,13.22
2019-02-04T01:44:03.837Z,13.95
2019-02-04T01:46:34.477Z,12.35
2019-02-04T01:49:04.871Z,13.95
2019-02-04T01:51:35.194Z,11.22
2019-02-04T01:54:05.558Z,12.55
2019-02-04T01:56:35.891Z,10.48
2019-02-04T01:59:06.639Z,14.68
2019-02-04T02:01:36.999Z,12.37
2019-02-04T02:04:07.636Z,13.50
2019-02-04T02:06:38.023Z,10.65
2019-02-04T02:09:10.760Z,14.28
2019-02-04T02:11:41.148Z,11.40
2019-02-04T02:14:11.520Z,14.75
2019-02-04T02:16:42.546Z,12.28
2019-02-04T02:19:13.239Z,12.75
2019-02-04T02:21:43.594Z,13.30
2019-02-04T02:24:13.952Z,20.75
2019-02-04T02:26:44.334Z,19.15
2019-02-04T02:29:15.378Z,17.07
2019-02-04T02:31:45.923Z,14.30
2019-02-04T02:34:16.281Z,16.65
2019-02-04T02:36:46.640Z,16.35
2019-02-04T02:39:17.352Z,18.87
2019-02-04T02:41:48.028Z,13.70
2019-02-04T02:44:18.648Z,15.88
2019-02-04T02:46:49.124Z,12.98
2019-02-04T02:49:19.895Z,16.12
2019-02-04T02:51:50.589Z,11.95
2019-02-04T02:54:20.957Z,18.80
2019-02-04T02:56:51.567Z,15.98
2019-02-04T02:59:21.940Z,22.15
2019-02-04T03:01:52.323Z,20.43
2019-02-04T03:04:23.088Z,18.42
2019-02-04T03:06:53.448Z,19.42
2019-02-04T03:09:24.354Z,23.30
2019-02-04T03:11:54.731Z,19.32
2019-02-04T03:14:25.659Z,22.27
2019-02-04T03:16:56.048Z,18.20
2019-02-04T03:19:26.380Z,20.32
2019-02-04T03:21:57.953Z,20.97
2019-02-04T03:24:28.661Z,16.65
2019-02-04T03:26:59.291Z,19.85
2019-02-04T03:29:29.771Z,15.75
2019-02-04T03:32:00.120Z,17.27
2019-02-04T03:34:30.833Z,19.17
2019-02-04T03:37:01.562Z,16.57
2019-02-04T03:39:31.963Z,17.90
2019-02-04T03:42:02.739Z,18.17
2019-02-04T03:44:33.735Z,22.95
2019-02-04T03:47:04.130Z,19.55
2019-02-04T03:49:34.457Z,16.55
2019-02-04T03:52:05.432Z,17.02
2019-02-04T03:54:35.853Z,15.13
2019-02-04T03:57:06.212Z,21.70
2019-02-04T03:59:36.604Z,21.00
2019-02-04T04:02:06.970Z,21.93
2019-02-04T04:04:37.595Z,21.30
2019-02-04T04:07:07.986Z,18.62
2019-02-04T04:09:38.679Z,17.32
2019-02-04T04:12:09.045Z,18.35
2019-02-04T04:14:39.632Z,21.97
2019-02-04T04:17:11.571Z,26.93
2019-02-04T04:19:42.263Z,19.30
2019-02-04T04:22:12.619Z,20.60
2019-02-04T04:24:43.298Z,25.95
2019-02-04T04:27:14.094Z,22.55
2019-02-04T04:29:44.475Z,28.83
2019-02-04T04:32:14.801Z,20.32
2019-02-04T04:34:45.926Z,24.92
2019-02-04T04:37:16.284Z,21.82
2019-02-04T04:39:47.412Z,13.53
2019-02-04T04:42:17.824Z,19.45
2019-02-04T04:44:48.198Z,19.48
2019-02-04T04:47:18.579Z,21.87
2019-02-04T04:49:49.632Z,19.80
2019-02-04T04:52:20.373Z,19.07
2019-02-04T04:54:50.693Z,19.17
2019-02-04T04:57:21.738Z,19.20
2019-02-04T04:59:52.517Z,18.10
2019-02-04T05:02:23.198Z,18.30
2019-02-04T05:04:53.857Z,21.02
2019-02-04T05:07:24.996Z,20.20
2019-02-04T05:09:56.037Z,16.97
2019-02-04T05:12:26.401Z,16.77
2019-02-04T05:14:56.828Z,17.85
2019-02-04T05:17:27.195Z,16.62
2019-02-04T05:19:58.388Z,20.32
2019-02-04T05:22:28.780Z,22.32
2019-02-04T05:24:59.487Z,17.75
2019-02-04T05:27:30.617Z,17.80
2019-02-04T05:30:01.559Z,18.30
2019-02-04T05:32:32.166Z,20.82
2019-02-04T05:35:02.893Z,20.35
2019-02-04T05:37:33.621Z,23.73
2019-02-04T05:40:07.086Z,19.35
2019-02-04T05:42:37.472Z,23.57
2019-02-04T05:45:11.488Z,21.15
2019-02-04T05:47:42.092Z,17.60
2019-02-04T05:50:17.442Z,14.87
2019-02-04T05:52:48.331Z,14.33
2019-02-04T05:55:20.782Z,19.32
2019-02-04T05:57:51.436Z,20.08
2019-02-04T06:00:38.141Z,25.80
2019-02-04T06:03:09.337Z,18.02
2019-02-04T06:05:40.071Z,22.30
2019-02-04T06:08:10.726Z,15.30
2019-02-04T06:10:41.457Z,17.32
2019-02-04T06:13:11.852Z,22.48
2019-02-04T06:15:42.216Z,21.30
2019-02-04T06:18:13.383Z,18.37
2019-02-04T06:20:44.096Z,16.95
2019-02-04T06:23:14.797Z,15.60
2019-02-04T06:25:45.831Z,20.23
2019-02-04T06:28:16.189Z,19.77
2019-02-04T06:30:46.841Z,24.50
2019-02-04T06:33:18.313Z,17.20
2019-02-04T06:35:49.014Z,20.82
2019-02-04T06:38:19.379Z,20.17
2019-02-04T06:40:50.113Z,17.37
2019-02-04T06:43:20.508Z,24.77
2019-02-04T06:45:51.462Z,20.62
2019-02-04T06:48:21.805Z,25.52
2019-02-04T06:50:52.585Z,20.70
2019-02-04T06:53:23.352Z,27.27
2019-02-04T06:56:13.119Z,19.00
2019-02-04T06:58:57.529Z,21.55
2019-02-04T07:01:47.687Z,19.75
2019-02-04T07:04:31.815Z,22.05
2019-02-04T07:07:21.584Z,26.37
2019-02-04T07:10:07.556Z,25.50
2019-02-04T07:16:31.403Z,24.07
2019-02-04T07:19:23.987Z,25.85
2019-02-04T07:22:25.120Z,22.05
2019-02-04T07:25:10.659Z,16.02
2019-02-04T07:28:00.818Z,24.00
2019-02-04T07:30:45.794Z,16.55
2019-02-04T07:33:28.296Z,19.73
2019-02-04T07:39:19.972Z,20.45
2019-02-04T07:42:09.830Z,23.18
2019-02-04T07:44:52.839Z,19.92
2019-02-04T07:47:42.660Z,23.12
2019-02-04T07:50:32.483Z,23.42
2019-02-04T07:53:17.034Z,22.35
2019-02-04T07:56:06.863Z,19.60
2019-02-04T07:58:51.719Z,21.80
2019-02-04T08:01:41.522Z,23.35
2019-02-04T08:04:24.360Z,19.00
2019-02-04T08:07:14.150Z,27.40
2019-02-04T08:10:15.571Z,21.23
2019-02-04T08:13:05.486Z,23.27
2019-02-04T08:15:55.255Z,20.70
2019-02-04T08:18:37.705Z,21.93
2019-02-04T08:24:29.181Z,20.90
2019-02-04T08:27:18.943Z,19.65
2019-02-04T08:30:30.155Z,23.35
2019-02-04T08:33:13.248Z,17.50
2019-02-04T08:36:03.036Z,22.32
2019-02-04T08:38:46.129Z,21.90
2019-02-04T08:41:36.263Z,18.98
2019-02-04T08:44:40.087Z,20.52
2019-02-04T08:47:29.906Z,18.57
2019-02-04T08:50:13.811Z,20.15
2019-02-04T08:53:23.207Z,21.25
2019-02-04T08:56:12.996Z,25.90
2019-02-04T08:58:55.653Z,17.17
2019-02-04T09:01:45.814Z,20.97
2019-02-04T09:04:28.736Z,19.52
2019-02-04T09:07:18.816Z,21.33
2019-02-04T09:09:49.501Z,27.10
2019-02-04T09:12:39.588Z,27.07
2019-02-04T09:15:43.740Z,17.55
2019-02-04T09:18:44.131Z,16.30
2019-02-04T09:21:37.563Z,12.73
2019-02-04T09:24:46.428Z,19.75
2019-02-04T09:27:36.512Z,25.72
2019-02-04T09:30:38.672Z,14.30
2019-02-04T09:33:28.455Z,15.70
2019-02-04T09:36:30.684Z,21.25
2019-02-04T09:39:11.248Z,21.00
2019-02-04T09:41:54.857Z,19.80
2019-02-04T09:44:44.611Z,19.77
2019-02-04T09:47:29.744Z,21.48
2019-02-04T09:50:40.993Z,17.00
2019-02-04T09:53:52.196Z,17.32
2019-02-04T09:56:35.408Z,13.55
2019-02-04T09:59:25.246Z,13.22
2019-02-04T10:02:05.866Z,22.37
2019-02-04T10:04:49.399Z,14.28
2019-02-04T10:07:39.483Z,13.62
2019-02-04T10:10:25.179Z,14.50
2019-02-04T10:13:15.194Z,18.52
2019-02-04T10:16:05.006Z,15.75
2019-02-04T10:18:47.425Z,15.00
2019-02-04T10:21:37.200Z,11.45
2019-02-04T10:24:40.792Z,13.62
2019-02-04T10:27:30.959Z,12.78
2019-02-04T10:30:17.682Z,11.90
2019-02-04T10:33:00.697Z,13.38
2019-02-04T10:35:51.120Z,12.95
2019-02-04T10:38:40.916Z,10.75
2019-02-04T10:41:25.320Z,12.30
2019-02-04T10:44:15.138Z,15.48
2019-02-04T10:47:05.452Z,11.83
2019-02-04T10:49:48.575Z,9.05
2019-02-04T10:52:38.343Z,6.75
2019-02-04T10:55:20.878Z,9.38
2019-02-04T10:58:31.918Z,13.43
2019-02-04T11:01:14.585Z,14.95
2019-02-04T11:04:04.715Z,25.12
2019-02-04T11:07:08.984Z,7.67
2019-02-04T11:09:59.134Z,10.82
2019-02-04T11:12:42.261Z,14.35
2019-02-04T11:15:32.250Z,13.83
2019-02-04T11:18:36.618Z,10.45
2019-02-04T11:21:26.319Z,7.50
2019-02-04T11:24:08.809Z,7.53
2019-02-04T11:26:59.400Z,11.83
2019-02-04T11:30:03.069Z,9.03
2019-02-04T11:32:45.703Z,10.25
2019-02-04T11:35:35.493Z,5.28
2019-02-04T11:38:25.277Z,4.30
2019-02-04T11:41:29.543Z,5.95
2019-02-04T11:44:19.673Z,11.20
2019-02-04T11:47:02.633Z,4.45
2019-02-04T11:49:52.629Z,4.30
2019-02-04T11:52:56.233Z,4.90
2019-02-04T11:55:45.992Z,14.90
2019-02-04T11:58:29.469Z,6.90
2019-02-04T12:01:19.216Z,7.03
2019-02-04T12:04:23.436Z,8.18
2019-02-04T12:07:13.236Z,3.25
2019-02-04T12:09:55.584Z,4.90
2019-02-04T12:12:45.381Z,9.08
2019-02-04T12:15:27.808Z,6.35
2019-02-04T12:18:17.624Z,5.53
2019-02-04T12:21:21.826Z,4.15
2019-02-04T12:24:12.029Z,10.13
2019-02-04T12:26:57.426Z,8.10
2019-02-04T12:29:47.478Z,3.90
2019-02-04T12:32:31.745Z,6.67
2019-02-04T12:35:22.143Z,4.10
2019-02-04T12:38:06.153Z,3.40
2019-02-04T12:40:56.202Z,7.10
2019-02-04T12:43:38.832Z,8.43
2019-02-04T12:46:28.840Z,7.08
2019-02-04T12:49:11.577Z,7.47
2019-02-04T12:55:30.256Z,4.15
2019-02-04T12:58:20.136Z,5.40
2019-02-04T13:01:03.234Z,6.78
2019-02-04T13:03:53.533Z,5.37
2019-02-04T13:06:36.722Z,4.42
2019-02-04T13:09:45.989Z,3.12
2019-02-04T13:12:30.682Z,7.10
2019-02-04T13:18:49.257Z,3.77
2019-02-04T13:21:45.499Z,3.05
2019-02-04T13:24:43.468Z,4.70
2019-02-04T13:27:33.268Z,3.65
2019-02-04T13:30:44.463Z,10.75
2019-02-04T13:33:25.201Z,5.10
2019-02-04T13:36:07.800Z,4.00
2019-02-04T13:42:12.584Z,4.37
2019-02-04T13:44:57.024Z,7.37
2019-02-04T13:47:47.374Z,4.42
2019-02-04T13:50:30.020Z,4.92
2019-02-04T13:53:20.184Z,10.00
2019-02-04T13:56:09.962Z,8.28
2019-02-04T13:58:52.329Z,6.12
2019-02-04T14:01:42.100Z,5.00
2019-02-04T14:04:25.601Z,5.50
2019-02-04T14:07:15.370Z,7.05
2019-02-04T14:10:46.120Z,9.20
2019-02-04T14:13:28.491Z,5.37
2019-02-04T14:16:18.259Z,7.40
2019-02-04T14:19:01.225Z,7.30
2019-02-04T14:21:51.152Z,6.45
2019-02-04T14:24:34.340Z,6.05
2019-02-04T14:27:24.396Z,4.25
2019-02-04T14:30:09.139Z,7.65
2019-02-04T14:32:51.442Z,5.20
2019-02-04T14:35:41.185Z,8.05
2019-02-04T14:38:24.375Z,6.70
2019-02-04T14:41:14.212Z,6.12
2019-02-04T14:43:56.902Z,9.68
2019-02-04T14:47:07.686Z,5.12
2019-02-04T14:49:51.680Z,7.60
2019-02-04T14:53:20.551Z,7.85
2019-02-04T14:56:29.759Z,8.23
2019-02-04T14:59:42.363Z,15.50
2019-02-04T15:02:45.733Z,12.85
2019-02-04T15:05:56.574Z,9.25
2019-02-04T15:08:58.702Z,14.50
2019-02-04T15:12:27.328Z,14.07
2019-02-04T15:15:17.352Z,11.88
2019-02-04T15:18:28.201Z,10.70
2019-02-04T15:21:17.112Z,12.35
2019-02-04T15:24:27.934Z,13.95
2019-02-04T15:27:12.388Z,15.48
2019-02-04T15:30:41.329Z,11.60
2019-02-04T15:33:26.383Z,15.58
2019-02-04T15:36:55.251Z,14.58
2019-02-04T15:40:23.892Z,15.80
2019-02-04T15:43:25.713Z,19.10
2019-02-04T15:46:37.653Z,15.83
2019-02-04T15:49:50.441Z,15.55
2019-02-04T15:52:31.564Z,19.37
2019-02-04T15:55:35.258Z,16.52
2019-02-04T15:58:25.315Z,16.73
2019-02-04T16:01:15.383Z,16.55
2019-02-04T16:03:58.291Z,21.80
2019-02-04T16:06:48.103Z,20.00
2019-02-04T16:09:30.925Z,22.32
2019-02-04T16:12:21.175Z,22.20
2019-02-04T16:15:03.621Z,18.92
2019-02-04T16:17:53.379Z,20.48
2019-02-04T16:20:43.908Z,25.85
2019-02-04T16:23:26.784Z,21.30
2019-02-04T16:26:16.594Z,20.85
2019-02-04T16:29:00.784Z,22.87
2019-02-04T16:31:43.587Z,23.45
2019-02-04T16:34:33.377Z,20.05
2019-02-04T16:37:15.868Z,21.10
2019-02-04T16:40:26.790Z,20.95
2019-02-04T16:43:09.630Z,21.82
2019-02-04T16:45:59.382Z,21.25
2019-02-04T16:48:41.664Z,20.40
2019-02-04T16:54:58.329Z,27.58
2019-02-04T16:57:48.169Z,23.20
2019-02-04T17:00:59.161Z,20.62
2019-02-04T17:03:41.767Z,19.92
2019-02-04T17:06:31.551Z,21.48
2019-02-04T17:09:21.659Z,16.67
2019-02-04T17:12:04.869Z,27.95
2019-02-04T17:14:54.666Z,18.70
2019-02-04T17:17:35.628Z,22.07
2019-02-04T17:20:22.587Z,23.95
2019-02-04T17:23:22.000Z,17.98
2019-02-04T17:26:17.059Z,18.17
2019-02-04T17:29:06.911Z,19.07
2019-02-04T17:31:49.389Z,20.17
2019-02-04T17:34:32.699Z,24.72
2019-02-04T17:37:22.505Z,19.98
2019-02-04T17:40:06.892Z,19.98
2019-02-04T17:42:57.058Z,16.80
2019-02-04T17:45:40.085Z,23.65
2019-02-04T17:48:30.276Z,21.68
2019-02-04T17:51:32.351Z,17.77
2019-02-04T17:54:22.728Z,20.23
2019-02-04T17:57:06.207Z,28.17
2019-02-04T17:59:56.066Z,24.05
2019-02-04T18:02:39.979Z,21.45
2019-02-04T18:05:49.180Z,20.27
2019-02-04T18:08:32.467Z,21.97
2019-02-04T18:11:22.542Z,21.93
2019-02-04T18:14:05.977Z,25.80
2019-02-04T18:19:57.330Z,18.32
2019-02-04T18:22:47.117Z,15.63
2019-02-04T18:25:29.809Z,15.58
2019-02-04T18:28:19.967Z,15.48
2019-02-04T18:31:09.789Z,21.07
2019-02-04T18:33:52.709Z,17.30
2019-02-04T18:36:35.601Z,18.07
2019-02-04T18:39:26.149Z,15.58
2019-02-04T18:42:16.215Z,19.00
2019-02-04T18:45:26.868Z,15.98
2019-02-04T18:48:16.680Z,14.47
2019-02-04T18:51:20.390Z,18.62
2019-02-04T18:54:10.925Z,26.85
2019-02-04T18:56:55.728Z,21.73
2019-02-04T19:02:53.588Z,16.85
2019-02-04T19:05:43.649Z,19.55
2019-02-04T19:08:26.707Z,18.95
2019-02-04T19:11:16.493Z,16.55
2019-02-04T19:13:59.564Z,25.68
2019-02-04T19:16:49.346Z,15.15
2019-02-04T19:19:32.275Z,14.28
2019-02-04T19:22:22.410Z,19.32
2019-02-04T19:25:26.546Z,14.78
2019-02-04T19:28:16.603Z,16.80
2019-02-04T19:31:01.106Z,16.70
2019-02-04T19:33:44.430Z,16.60
2019-02-04T19:36:34.244Z,16.35
2019-02-04T19:39:17.269Z,16.75
2019-02-04T19:42:26.423Z,15.28
2019-02-04T19:45:11.369Z,25.05
2019-02-04T19:48:03.168Z,16.57
2019-02-04T19:51:05.373Z,20.15
2019-02-04T19:53:55.572Z,21.23
2019-02-04T19:56:38.598Z,16.40
2019-02-04T19:59:47.742Z,17.73
2019-02-04T20:02:30.577Z,23.42
2019-02-04T20:05:41.703Z,17.67
2019-02-04T20:08:26.215Z,16.32
2019-02-04T20:11:16.041Z,14.18
2019-02-04T20:13:59.123Z,22.60
2019-02-04T20:16:48.920Z,16.62
2019-02-04T20:19:31.306Z,17.25
2019-02-04T20:22:21.740Z,12.75
2019-02-04T20:25:06.332Z,14.00
2019-02-04T20:27:56.183Z,18.50
2019-02-04T20:30:45.811Z,17.73
2019-02-04T20:33:32.276Z,15.65
2019-02-04T20:36:15.164Z,15.43
2019-02-04T20:39:26.027Z,20.08
2019-02-04T20:42:29.934Z,17.02
2019-02-04T20:45:19.729Z,24.23
2019-02-04T20:48:05.554Z,15.65
2019-02-04T20:50:55.468Z,13.32
2019-02-04T20:53:59.100Z,16.07
2019-02-04T20:57:08.267Z,16.30
2019-02-04T20:59:48.995Z,14.35
2019-02-04T21:02:31.743Z,13.98
2019-02-04T21:05:21.767Z,18.23
2019-02-04T21:08:04.902Z,12.78
2019-02-04T21:10:35.248Z,16.82
2019-02-04T21:13:25.324Z,14.23
2019-02-04T21:16:07.648Z,17.67
2019-02-04T21:18:50.358Z,11.57
2019-02-04T21:21:40.388Z,13.25
2019-02-04T21:24:22.797Z,15.43
2019-02-04T21:27:06.135Z,12.13
2019-02-04T21:29:55.919Z,11.90
2019-02-04T21:32:59.630Z,11.65
2019-02-04T21:35:49.750Z,17.60
2019-02-04T21:38:34.152Z,12.07
2019-02-04T21:41:24.287Z,13.62
2019-02-04T21:44:27.976Z,12.43
2019-02-04T21:47:18.088Z,11.35
2019-02-04T21:50:03.125Z,10.75
2019-02-04T21:53:11.993Z,9.20
2019-02-04T21:55:56.972Z,17.80
2019-02-04T21:58:46.790Z,22.02
2019-02-04T22:01:29.857Z,11.03
2019-02-04T22:04:19.970Z,11.97
2019-02-04T22:07:02.357Z,11.83
2019-02-04T22:09:45.089Z,9.85
2019-02-04T22:12:35.170Z,8.08
2019-02-04T22:15:19.976Z,10.13
2019-02-04T22:18:10.351Z,10.30
2019-02-04T22:21:13.770Z,6.80
2019-02-04T22:24:03.658Z,7.22
2019-02-04T22:26:47.721Z,6.30
2019-02-04T22:29:37.748Z,11.08
2019-02-04T22:32:20.400Z,10.18
2019-02-04T22:35:10.724Z,15.83
2019-02-04T22:37:53.620Z,8.75
2019-02-04T22:40:43.657Z,11.25
2019-02-04T22:43:26.474Z,8.83
2019-02-04T22:46:16.251Z,6.90
2019-02-04T22:49:00.887Z,9.98
2019-02-04T22:51:50.640Z,7.25
2019-02-04T22:54:35.697Z,12.80
2019-02-04T22:57:25.798Z,5.95
2019-02-04T23:00:56.438Z,8.73
2019-02-04T23:06:48.196Z,5.83
2019-02-04T23:09:37.969Z,7.58
2019-02-04T23:12:20.889Z,6.28
2019-02-04T23:15:10.907Z,8.95
2019-02-04T23:17:53.862Z,6.37
2019-02-04T23:20:43.635Z,9.30
2019-02-04T23:23:26.260Z,14.43
2019-02-04T23:29:43.141Z,5.87
2019-02-04T23:35:15.447Z,6.42
2019-02-04T23:38:16.710Z,7.20
2019-02-04T23:41:07.127Z,6.25
2019-02-04T23:43:49.450Z,6.25
2019-02-04T23:46:39.504Z,6.55
2019-02-04T23:49:41.554Z,5.65
2019-02-04T23:52:24.124Z,5.83
2019-02-04T23:55:14.873Z,5.60
2019-02-04T23:57:58.083Z,9.93
